createdAt,value
2019-06-10T00:02:07.273Z,92.99
2019-06-10T00:05:11.661Z,93.01
2019-06-10T00:08:15.979Z,93.17
2019-06-10T00:11:21.344Z,93.43
2019-06-10T00:14:25.784Z,93.72
2019-06-10T00:17:31.403Z,94.00
2019-06-10T00:20:35.849Z,94.49
2019-06-10T00:23:41.214Z,94.49
2019-06-10T00:26:45.729Z,94.41
2019-06-10T00:29:51.278Z,94.15
2019-06-10T00:32:55.614Z,94.18
2019-06-10T00:36:02.306Z,94.15
2019-06-10T00:39:08.861Z,94.15
2019-06-10T00:42:15.237Z,93.83
2019-06-10T00:45:21.646Z,93.64
2019-06-10T00:48:29.085Z,93.87
2019-06-10T00:51:32.225Z,93.67
2019-06-10T00:54:36.536Z,93.40
2019-06-10T00:57:41.807Z,93.27
2019-06-10T01:00:46.290Z,92.61
2019-06-10T01:03:50.979Z,91.73
2019-06-10T01:06:55.304Z,89.96
2019-06-10T01:10:01.121Z,89.83
2019-06-10T01:13:06.971Z,89.78
2019-06-10T01:16:12.602Z,89.79
2019-06-10T01:19:17.380Z,89.85
2019-06-10T01:22:21.680Z,89.58
2019-06-10T01:25:26.082Z,89.19
2019-06-10T01:28:31.420Z,89.31
2019-06-10T01:31:35.854Z,89.01
2019-06-10T01:34:41.672Z,88.48
2019-06-10T01:37:46.095Z,88.11
2019-06-10T01:40:50.962Z,88.36
2019-06-10T01:43:55.477Z,88.42
2019-06-10T01:47:01.050Z,88.49
2019-06-10T01:50:07.064Z,88.78
2019-06-10T01:53:14.071Z,88.39
2019-06-10T01:56:18.628Z,88.29
2019-06-10T01:59:23.411Z,88.31
2019-06-10T02:02:27.751Z,88.36
2019-06-10T02:05:32.076Z,88.64
2019-06-10T02:08:36.388Z,89.06
2019-06-10T02:11:41.413Z,89.22
2019-06-10T02:14:45.839Z,89.56
2019-06-10T02:17:50.967Z,89.74
2019-06-10T02:20:55.415Z,89.92
2019-06-10T02:24:00.987Z,89.88
2019-06-10T02:27:05.409Z,89.62
2019-06-10T02:30:19.009Z,89.47
2019-06-10T02:33:18.991Z,89.85
2019-06-10T02:36:30.863Z,89.58
2019-06-10T02:39:35.060Z,89.28
2019-06-10T02:42:38.395Z,89.44
2019-06-10T02:45:44.624Z,89.69
2019-06-10T02:48:49.164Z,90.07
2019-06-10T02:51:53.823Z,89.42
2019-06-10T02:54:58.247Z,90.01
2019-06-10T02:58:03.975Z,90.45
2019-06-10T03:01:08.491Z,90.72
2019-06-10T03:04:13.728Z,90.80
2019-06-10T03:07:20.106Z,90.63
2019-06-10T03:10:30.120Z,90.74
2019-06-10T03:13:30.399Z,90.56
2019-06-10T03:16:49.002Z,90.67
2019-06-10T03:19:53.669Z,90.71
2019-06-10T03:22:57.990Z,91.05
2019-06-10T03:26:04.230Z,90.48
2019-06-10T03:29:08.822Z,90.78
2019-06-10T03:32:16.616Z,90.52
2019-06-10T03:35:19.361Z,90.60
2019-06-10T03:38:26.996Z,90.84
2019-06-10T03:41:32.151Z,90.05
2019-06-10T03:44:35.738Z,89.24
2019-06-10T03:47:42.490Z,89.23
2019-06-10T03:50:46.142Z,89.56
2019-06-10T03:53:52.906Z,89.35
2019-06-10T03:56:57.645Z,89.60
2019-06-10T04:00:10.028Z,89.33
2019-06-10T04:03:07.975Z,89.92
2019-06-10T04:06:13.167Z,90.13
2019-06-10T04:09:17.619Z,89.88
2019-06-10T04:12:24.257Z,89.38
2019-06-10T04:15:29.466Z,89.71
2019-06-10T04:18:33.961Z,89.68
2019-06-10T04:21:38.354Z,89.78
2019-06-10T04:24:44.467Z,90.38
2019-06-10T04:27:52.320Z,90.82
2019-06-10T04:30:56.047Z,90.72
2019-06-10T04:34:03.164Z,90.90
2019-06-10T04:37:07.472Z,91.13
2019-06-10T04:40:13.384Z,91.20
2019-06-10T04:43:18.417Z,91.13
2019-06-10T04:46:24.585Z,91.36
2019-06-10T04:49:29.798Z,91.35
2019-06-10T04:52:34.141Z,91.68
2019-06-10T04:55:38.431Z,91.76
2019-06-10T04:58:43.391Z,92.06
2019-06-10T05:01:47.739Z,91.99
2019-06-10T05:04:53.197Z,92.04
2019-06-10T05:07:57.616Z,92.22
2019-06-10T05:11:03.689Z,91.79
2019-06-10T05:14:07.901Z,92.60
2019-06-10T05:17:12.733Z,92.39
2019-06-10T05:20:18.099Z,92.41
2019-06-10T05:23:23.872Z,92.43
2019-06-10T05:26:28.919Z,93.32
2019-06-10T05:29:34.512Z,93.28
2019-06-10T05:32:38.812Z,92.98
2019-06-10T05:35:43.395Z,92.89
2019-06-10T05:38:47.679Z,92.82
2019-06-10T05:41:53.075Z,93.03
2019-06-10T05:44:57.696Z,92.76
2019-06-10T05:48:02.793Z,92.25
2019-06-10T05:51:07.284Z,92.81
2019-06-10T05:54:12.868Z,92.50
2019-06-10T05:57:17.364Z,92.05
2019-06-10T06:00:23.461Z,92.23
2019-06-10T06:03:29.755Z,91.98
2019-06-10T06:06:35.456Z,92.24
2019-06-10T06:09:40.022Z,91.86
2019-06-10T06:12:44.319Z,90.57
2019-06-10T06:15:48.637Z,90.39
2019-06-10T06:18:52.949Z,89.84
2019-06-10T06:21:57.269Z,89.34
2019-06-10T06:25:03.848Z,88.49
2019-06-10T06:28:08.239Z,87.61
2019-06-10T06:31:15.436Z,88.08
2019-06-10T06:34:22.249Z,88.07
2019-06-10T06:37:26.855Z,88.02
2019-06-10T06:40:35.646Z,87.96
2019-06-10T06:43:44.369Z,88.76
2019-06-10T06:46:45.201Z,88.77
2019-06-10T06:49:49.512Z,88.84
2019-06-10T06:53:19.672Z,88.31
2019-06-10T06:55:59.827Z,88.92
2019-06-10T06:59:05.601Z,90.01
2019-06-10T07:02:12.187Z,90.75
2019-06-10T07:05:16.228Z,90.77
2019-06-10T07:08:22.825Z,91.62
2019-06-10T07:11:27.788Z,91.73
2019-06-10T07:14:35.930Z,91.95
2019-06-10T07:17:41.627Z,92.54
2019-06-10T07:20:46.061Z,93.03
2019-06-10T07:23:52.792Z,93.28
2019-06-10T07:26:56.704Z,93.46
2019-06-10T07:30:11.253Z,93.43
2019-06-10T07:33:07.427Z,93.60
2019-06-10T07:36:13.171Z,93.99
2019-06-10T07:39:17.669Z,94.46
2019-06-10T07:42:22.737Z,94.78
2019-06-10T07:45:27.216Z,93.91
2019-06-10T07:48:33.497Z,93.76
2019-06-10T07:51:37.553Z,93.83
2019-06-10T07:54:43.740Z,93.05
2019-06-10T07:57:47.951Z,93.09
2019-06-10T08:00:53.469Z,92.85
2019-06-10T08:03:58.175Z,92.64
2019-06-10T08:07:03.354Z,93.08
2019-06-10T08:10:08.364Z,93.18
2019-06-10T08:13:13.267Z,93.47
2019-06-10T08:16:17.564Z,94.08
2019-06-10T08:19:34.420Z,94.71
2019-06-10T08:22:33.326Z,93.92
2019-06-10T08:25:34.124Z,94.60
2019-06-10T08:28:39.627Z,94.94
2019-06-10T08:31:47.929Z,94.93
2019-06-10T08:34:52.853Z,93.77
2019-06-10T08:37:56.278Z,93.84
2019-06-10T08:41:03.271Z,93.81
2019-06-10T08:44:07.824Z,93.42
2019-06-10T08:47:12.483Z,93.63
2019-06-10T08:50:17.038Z,94.15
2019-06-10T08:53:22.745Z,94.21
2019-06-10T08:56:27.488Z,93.62
2019-06-10T08:59:32.709Z,94.29
2019-06-10T09:02:39.126Z,94.87
2019-06-10T09:05:46.499Z,94.87
2019-06-10T09:08:51.321Z,93.48
2019-06-10T09:11:55.539Z,93.48
2019-06-10T09:14:59.884Z,93.37
2019-06-10T09:18:04.344Z,93.67
2019-06-10T09:21:08.737Z,94.22
2019-06-10T09:24:13.352Z,94.21
2019-06-10T09:27:18.113Z,93.67
2019-06-10T09:30:28.911Z,93.52
2019-06-10T09:33:36.452Z,93.93
2019-06-10T09:36:42.240Z,93.33
2019-06-10T09:39:53.938Z,93.75
2019-06-10T09:42:55.275Z,94.12
2019-06-10T09:45:59.726Z,93.75
2019-06-10T09:49:06.266Z,94.62
2019-06-10T09:52:13.335Z,94.88
2019-06-10T09:55:23.268Z,94.57
2019-06-10T09:58:26.651Z,94.34
2019-06-10T10:01:32.664Z,94.67
2019-06-10T10:04:39.215Z,95.03
2019-06-10T10:07:46.991Z,95.40
2019-06-10T10:10:57.333Z,95.02
2019-06-10T10:13:56.335Z,95.18
2019-06-10T10:17:04.448Z,94.57
2019-06-10T10:20:06.960Z,94.00
2019-06-10T10:23:13.695Z,93.60
2019-06-10T10:26:17.387Z,93.92
2019-06-10T10:29:22.262Z,92.16
2019-06-10T10:32:26.946Z,93.03
2019-06-10T10:35:32.660Z,92.32
2019-06-10T10:38:37.083Z,92.06
2019-06-10T10:41:44.236Z,91.91
2019-06-10T10:44:50.000Z,92.14
2019-06-10T10:47:57.442Z,92.34
2019-06-10T10:50:59.896Z,91.67
2019-06-10T10:54:21.221Z,92.82
2019-06-10T10:57:10.391Z,92.82
2019-06-10T11:00:15.609Z,92.41
2019-06-10T11:03:19.923Z,92.75
2019-06-10T11:06:24.269Z,92.57
2019-06-10T11:09:29.066Z,91.92
2019-06-10T11:12:35.064Z,92.00
2019-06-10T11:15:39.335Z,92.20
2019-06-10T11:18:45.114Z,92.33
2019-06-10T11:21:49.646Z,92.21
2019-06-10T11:24:56.180Z,89.90
2019-06-10T11:28:03.382Z,90.39
2019-06-10T11:31:06.456Z,88.51
2019-06-10T11:34:11.601Z,89.43
2019-06-10T11:37:16.147Z,90.14
2019-06-10T11:40:22.433Z,90.05
2019-06-10T11:43:26.858Z,90.26
2019-06-10T11:46:32.613Z,90.75
2019-06-10T11:49:37.325Z,90.08
2019-06-10T11:52:43.337Z,90.17
2019-06-10T11:55:47.814Z,90.60
2019-06-10T11:58:54.927Z,90.69
2019-06-10T12:02:01.659Z,90.74
2019-06-10T12:05:04.930Z,90.71
2019-06-10T12:08:09.337Z,90.36
2019-06-10T12:11:13.742Z,90.38
2019-06-10T12:14:18.104Z,89.95
2019-06-10T12:17:41.054Z,89.09
2019-06-10T12:20:33.255Z,90.36
2019-06-10T12:23:36.769Z,90.24
2019-06-10T12:26:43.387Z,89.04
2019-06-10T12:29:47.090Z,89.21
2019-06-10T12:32:55.672Z,88.88
2019-06-10T12:36:00.281Z,87.34
2019-06-10T12:39:10.625Z,87.50
2019-06-10T12:42:13.548Z,86.96
2019-06-10T12:45:16.844Z,86.49
2019-06-10T12:48:22.195Z,87.85
2019-06-10T12:51:27.710Z,88.17
2019-06-10T12:54:32.647Z,88.21
2019-06-10T12:57:38.105Z,86.29
2019-06-10T13:00:46.722Z,86.78
2019-06-10T13:03:53.650Z,87.44
2019-06-10T13:07:00.172Z,87.25
2019-06-10T13:10:04.810Z,86.21
2019-06-10T13:13:09.710Z,86.97
2019-06-10T13:16:14.554Z,86.94
2019-06-10T13:19:19.095Z,86.96
2019-06-10T13:22:23.400Z,87.18
2019-06-10T13:25:27.868Z,87.10
2019-06-10T13:28:32.833Z,86.28
2019-06-10T13:31:37.347Z,87.22
2019-06-10T13:34:42.555Z,87.05
2019-06-10T13:37:48.697Z,86.86
2019-06-10T13:40:53.403Z,87.23
2019-06-10T13:43:57.962Z,86.86
2019-06-10T13:47:07.115Z,87.22
2019-06-10T13:50:11.363Z,85.14
2019-06-10T13:53:15.725Z,86.52
2019-06-10T13:56:42.089Z,86.87
2019-06-10T13:59:27.128Z,85.64
2019-06-10T14:02:32.357Z,85.24
2019-06-10T14:05:36.981Z,83.85
2019-06-10T14:08:43.721Z,84.81
2019-06-10T14:11:47.465Z,84.49
2019-06-10T14:14:53.336Z,84.43
2019-06-10T14:18:01.801Z,84.33
2019-06-10T14:21:09.733Z,85.06
2019-06-10T14:24:15.744Z,84.62
2019-06-10T14:27:21.478Z,84.56
2019-06-10T14:30:25.050Z,84.34
2019-06-10T14:33:29.504Z,83.35
2019-06-10T14:36:33.974Z,82.77
2019-06-10T14:39:42.134Z,82.20
2019-06-10T14:42:45.736Z,81.68
2019-06-10T14:45:53.142Z,83.19
2019-06-10T14:48:56.188Z,82.00
2019-06-10T14:52:02.765Z,82.01
2019-06-10T14:55:09.421Z,82.23
2019-06-10T14:58:18.667Z,83.05
2019-06-10T15:01:25.538Z,83.46
2019-06-10T15:04:27.811Z,83.36
2019-06-10T15:07:33.078Z,82.59
2019-06-10T15:10:37.472Z,82.38
2019-06-10T15:13:43.608Z,83.40
2019-06-10T15:16:47.917Z,83.16
2019-06-10T15:19:53.012Z,83.17
2019-06-10T15:22:58.014Z,84.27
2019-06-10T15:26:02.965Z,84.38
2019-06-10T15:29:07.446Z,84.21
2019-06-10T15:32:24.357Z,84.54
2019-06-10T15:35:21.895Z,85.71
2019-06-10T15:38:25.013Z,84.96
2019-06-10T15:41:29.441Z,85.47
2019-06-10T15:44:48.506Z,83.01
2019-06-10T15:47:42.559Z,83.39
2019-06-10T15:50:46.061Z,83.74
2019-06-10T15:53:50.352Z,82.87
2019-06-10T15:56:56.493Z,84.35
2019-06-10T16:00:04.253Z,84.94
2019-06-10T16:03:09.320Z,85.57
2019-06-10T16:06:13.922Z,85.78
2019-06-10T16:09:20.317Z,86.90
2019-06-10T16:12:26.929Z,85.77
2019-06-10T16:15:33.117Z,85.80
2019-06-10T16:18:37.377Z,87.23
2019-06-10T16:21:42.887Z,87.08
2019-06-10T16:24:47.394Z,86.51
2019-06-10T16:27:54.465Z,87.71
2019-06-10T16:31:02.509Z,86.98
2019-06-10T16:34:05.874Z,85.95
2019-06-10T16:37:10.176Z,86.33
2019-06-10T16:40:17.091Z,85.10
2019-06-10T16:43:24.130Z,85.15
2019-06-10T16:46:29.150Z,84.30
2019-06-10T16:49:33.561Z,83.37
2019-06-10T16:52:38.054Z,84.19
2019-06-10T16:55:42.525Z,84.81
2019-06-10T16:58:46.846Z,83.81
2019-06-10T17:01:53.124Z,81.94
2019-06-10T17:04:58.596Z,81.84
2019-06-10T17:08:03.358Z,80.72
2019-06-10T17:11:07.880Z,80.48
2019-06-10T17:14:12.679Z,82.15
2019-06-10T17:17:18.550Z,83.34
2019-06-10T17:20:23.662Z,83.45
2019-06-10T17:23:35.872Z,83.57
2019-06-10T17:26:38.299Z,83.67
2019-06-10T17:29:42.904Z,84.01
2019-06-10T17:32:47.340Z,83.84
2019-06-10T17:35:52.784Z,83.66
2019-06-10T17:38:59.012Z,83.16
2019-06-10T17:42:04.730Z,83.46
2019-06-10T17:45:09.232Z,83.66
2019-06-10T17:48:13.752Z,83.31
2019-06-10T17:51:18.166Z,83.52
2019-06-10T17:54:24.067Z,84.17
2019-06-10T17:57:30.019Z,83.52
2019-06-10T18:00:36.345Z,83.95
2019-06-10T18:03:43.021Z,83.38
2019-06-10T18:06:47.461Z,84.77
2019-06-10T18:09:52.984Z,85.21
2019-06-10T18:13:10.174Z,84.04
2019-06-10T18:16:05.014Z,85.16
2019-06-10T18:19:10.645Z,84.95
2019-06-10T18:22:16.427Z,84.86
2019-06-10T18:25:23.040Z,84.61
2019-06-10T18:28:29.331Z,84.73
2019-06-10T18:31:35.267Z,84.81
2019-06-10T18:34:39.683Z,85.04
2019-06-10T18:37:44.094Z,85.54
2019-06-10T18:40:48.391Z,85.51
2019-06-10T18:43:53.395Z,85.62
2019-06-10T18:46:57.822Z,86.02
2019-06-10T18:50:02.444Z,86.10
2019-06-10T18:53:06.770Z,86.47
2019-06-10T18:56:12.840Z,86.57
2019-06-10T18:59:21.112Z,87.05
2019-06-10T19:02:24.726Z,87.33
2019-06-10T19:05:31.078Z,87.70
2019-06-10T19:08:37.509Z,87.15
2019-06-10T19:11:43.357Z,87.28
2019-06-10T19:14:47.941Z,87.22
2019-06-10T19:17:53.620Z,87.70
2019-06-10T19:20:59.416Z,87.25
2019-06-10T19:24:04.123Z,87.05
2019-06-10T19:27:08.596Z,86.67
2019-06-10T19:30:14.779Z,84.39
2019-06-10T19:33:19.243Z,84.71
2019-06-10T19:36:23.563Z,82.34
2019-06-10T19:39:28.022Z,81.33
2019-06-10T19:42:33.980Z,80.95
2019-06-10T19:45:38.338Z,81.13
2019-06-10T19:48:55.575Z,80.66
2019-06-10T19:51:52.633Z,80.19
2019-06-10T19:54:56.840Z,80.12
2019-06-10T19:58:03.758Z,79.82
2019-06-10T20:01:07.532Z,80.18
2019-06-10T20:04:15.621Z,80.74
2019-06-10T20:07:17.996Z,80.73
2019-06-10T20:10:23.114Z,80.62
2019-06-10T20:13:27.566Z,80.20
2019-06-10T20:16:31.955Z,81.06
2019-06-10T20:19:36.265Z,80.46
2019-06-10T20:22:43.597Z,80.27
2019-06-10T20:25:46.944Z,80.17
2019-06-10T20:28:55.176Z,80.50
2019-06-10T20:31:57.700Z,80.62
2019-06-10T20:35:02.970Z,80.86
2019-06-10T20:38:07.553Z,80.68
2019-06-10T20:41:13.076Z,81.53
2019-06-10T20:44:17.381Z,81.94
2019-06-10T20:47:22.984Z,82.63
2019-06-10T20:50:27.996Z,82.87
2019-06-10T20:53:33.830Z,83.73
2019-06-10T20:56:38.620Z,84.88
2019-06-10T20:59:46.156Z,85.82
2019-06-10T21:02:50.991Z,86.65
2019-06-10T21:05:56.707Z,87.42
2019-06-10T21:09:02.991Z,88.05
2019-06-10T21:12:07.317Z,88.34
2019-06-10T21:15:12.591Z,88.09
2019-06-10T21:18:17.009Z,87.86
2019-06-10T21:21:22.620Z,87.72
2019-06-10T21:24:27.216Z,88.08
2019-06-10T21:27:32.849Z,87.39
2019-06-10T21:30:41.938Z,87.82
2019-06-10T21:33:47.420Z,87.78
2019-06-10T21:36:52.763Z,87.79
2019-06-10T21:39:56.485Z,87.31
2019-06-10T21:43:02.913Z,87.43
2019-06-10T21:46:06.999Z,87.11
2019-06-10T21:49:12.756Z,86.79
2019-06-10T21:52:17.173Z,86.10
2019-06-10T21:55:22.656Z,85.49
2019-06-10T21:58:27.081Z,86.01
2019-06-10T22:01:32.605Z,85.71
2019-06-10T22:04:37.187Z,85.53
2019-06-10T22:07:42.293Z,85.22
2019-06-10T22:10:48.054Z,85.46
2019-06-10T22:13:54.262Z,85.56
2019-06-10T22:16:58.445Z,85.07
2019-06-10T22:20:04.235Z,85.14
2019-06-10T22:23:08.542Z,85.33
2019-06-10T22:26:14.635Z,86.04
2019-06-10T22:29:19.044Z,85.77
2019-06-10T22:32:24.446Z,85.99
2019-06-10T22:35:28.738Z,86.24
2019-06-10T22:38:33.149Z,86.17
2019-06-10T22:41:37.600Z,86.47
2019-06-10T22:44:42.526Z,85.93
2019-06-10T22:47:47.657Z,87.20
2019-06-10T22:50:53.240Z,86.81
2019-06-10T22:54:00.822Z,87.07
2019-06-10T22:57:05.276Z,87.48
2019-06-10T23:00:12.943Z,88.28
2019-06-10T23:03:17.519Z,88.92
2019-06-10T23:06:23.286Z,89.91
2019-06-10T23:09:27.810Z,90.13
2019-06-10T23:12:32.116Z,89.29
2019-06-10T23:15:36.424Z,88.79
2019-06-10T23:18:42.596Z,89.20
2019-06-10T23:21:46.945Z,89.74
2019-06-10T23:24:51.535Z,90.26
2019-06-10T23:27:57.644Z,90.97
2019-06-10T23:31:04.942Z,89.89
2019-06-10T23:34:08.120Z,88.81
2019-06-10T23:37:12.689Z,89.36
2019-06-10T23:40:17.072Z,89.36
2019-06-10T23:43:22.488Z,89.97
2019-06-10T23:46:27.186Z,90.07
2019-06-10T23:49:33.304Z,88.94
2019-06-10T23:52:37.639Z,88.54
2019-06-10T23:55:42.771Z,88.89
2019-06-10T23:58:47.441Z,89.19
